Time;durP1;ratioP1;P1;durP2;ratioP2;P2;SDS_P1;SDS_P2;PMS_P1;PMS_P2;Temp;Humidity;BMP_temperature;BMP_pressure;BME280_temperature;BME280_humidity;BME280_pressure;Samples;Min_cycle;Max_cycle;Signal;HPM_P1;HPM_P2
2023/01/19 00:00:10;;;;;;;;;;;;;;;21.19;29.01;97292.91;5076336;28;864;-78
2023/01/19 00:02:36;;;;;;;;;;;;;;;21.40;28.96;97291.34;5074579;28;1182;-79
2023/01/19 00:05:02;;;;;;;;;;;;;;;21.18;28.97;97261.00;5076015;28;886;-78
2023/01/19 00:07:28;;;;;;;;;;;;;;;21.70;28.53;97293.44;5075773;28;1012;-78
2023/01/19 00:09:55;;;;;;;;;;;;;;;21.33;28.68;97298.06;5058223;28;1045;-79
2023/01/19 00:12:21;;;;;;;;;;;;;;;21.29;28.59;97286.84;5074504;28;1909;-79
2023/01/19 00:14:46;;;;;;;;;;;;;;;21.09;28.98;97306.19;5074227;28;988;-78
2023/01/19 00:17:11;;;;;;;;;;;;;;;21.18;29.28;97313.97;5076041;28;923;-79
2023/01/19 00:19:37;;;;;;;;;;;;;;;21.32;28.88;97293.66;5076107;28;937;-78
2023/01/19 00:22:04;;;;;;;;;;;;;;;21.30;28.93;97299.81;5076429;28;992;-79
2023/01/19 00:24:30;;;;;;;;;;;;;;;21.23;28.73;97328.31;5074979;28;819;-78
2023/01/19 00:26:56;;;;;;;;;;;;;;;20.96;29.42;97316.75;5016908;28;993;-79
2023/01/19 00:29:21;;;;;;;;;;;;;;;20.94;29.37;97319.25;5016696;28;941;-78
2023/01/19 00:31:47;;;;;;;;;;;;;;;20.87;29.60;97313.84;5033975;28;972;-78
2023/01/19 00:34:12;;;;;;;;;;;;;;;21.32;29.07;97317.09;5033168;28;1910;-78
2023/01/19 00:36:37;;;;;;;;;;;;;;;21.57;28.52;97312.56;5033941;28;920;-79
2023/01/19 00:39:03;;;;;;;;;;;;;;;21.30;28.93;97316.78;5033810;28;971;-79
2023/01/19 00:44:12;;;;;;;;;;;;;;;20.98;29.65;97311.41;5033332;28;914;-79
2023/01/19 00:46:38;;;;;;;;;;;;;;;21.12;29.46;97299.63;5050291;28;1026;-79
2023/01/19 00:49:03;;;;;;;;;;;;;;;21.41;28.88;97292.97;5033450;28;969;-79
2023/01/19 00:51:29;;;;;;;;;;;;;;;21.72;28.27;97295.84;5033271;28;951;-79
2023/01/19 00:53:54;;;;;;;;;;;;;;;21.42;28.67;97291.69;5033356;28;1902;-78
2023/01/19 00:56:20;;;;;;;;;;;;;;;21.08;28.98;97288.41;5033698;28;968;-79
2023/01/19 00:58:45;;;;;;;;;;;;;;;21.20;28.68;97267.00;5068138;28;879;-79
2023/01/19 01:01:11;;;;;;;;;;;;;;;21.43;28.84;97267.81;5075840;28;893;-78
2023/01/19 01:03:36;;;;;;;;;;;;;;;21.64;28.41;97261.31;5075299;28;945;-79
2023/01/19 01:06:02;;;;;;;;;;;;;;;21.56;28.46;97266.50;5075899;28;838;-78
2023/01/19 01:08:28;;;;;;;;;;;;;;;21.21;28.66;97262.91;5075474;28;1151;-78
2023/01/19 01:10:54;;;;;;;;;;;;;;;21.25;29.03;97266.41;5074576;28;903;-78
2023/01/19 01:13:19;;;;;;;;;;;;;;;21.17;28.89;97267.91;5075184;28;1902;-79
2023/01/19 01:15:47;;;;;;;;;;;;;;;21.20;29.09;97269.81;5075826;28;887;-79
2023/01/19 01:18:13;;;;;;;;;;;;;;;21.19;29.36;97270.25;5075961;28;939;-79
2023/01/19 01:20:38;;;;;;;;;;;;;;;21.45;28.94;97271.78;5075213;28;879;-79
2023/01/19 01:23:04;;;;;;;;;;;;;;;21.73;28.15;97274.75;5075345;28;1000;-79
2023/01/19 01:25:29;;;;;;;;;;;;;;;21.23;28.94;97277.38;5077612;28;894;-78
2023/01/19 01:27:55;;;;;;;;;;;;;;;21.21;28.81;97274.22;5077106;28;1006;-79
2023/01/19 01:30:20;;;;;;;;;;;;;;;21.37;28.93;97290.25;5079254;28;915;-79
2023/01/19 01:32:46;;;;;;;;;;;;;;;21.08;29.31;97281.97;5077853;28;1905;-78
2023/01/19 01:35:12;;;;;;;;;;;;;;;21.19;29.27;97296.53;5077712;28;908;-78
2023/01/19 01:37:37;;;;;;;;;;;;;;;21.36;28.80;97285.06;5078823;28;1074;-79
2023/01/19 01:40:03;;;;;;;;;;;;;;;21.61;28.73;97269.97;5078637;28;937;-79
2023/01/19 01:42:29;;;;;;;;;;;;;;;21.20;29.17;97264.16;5036771;28;933;-78
2023/01/19 01:44:55;;;;;;;;;;;;;;;20.98;29.16;97266.97;5036517;28;957;-78
2023/01/19 01:47:22;;;;;;;;;;;;;;;20.84;29.42;97266.69;5036228;28;943;-79
2023/01/19 01:49:47;;;;;;;;;;;;;;;21.10;29.31;97251.19;5036510;28;956;-79
2023/01/19 01:52:13;;;;;;;;;;;;;;;21.23;29.24;97251.91;5036453;28;1980;-78
2023/01/19 01:54:39;;;;;;;;;;;;;;;21.49;28.84;97248.97;5036494;28;993;-78
2023/01/19 01:57:04;;;;;;;;;;;;;;;21.63;28.66;97253.31;5036373;28;939;-79
2023/01/19 01:59:37;;;;;;;;;;;;;;;21.03;29.22;97245.78;5036222;28;976;-78
2023/01/19 02:04:55;;;;;;;;;;;;;;;20.96;29.28;97280.00;5036451;28;896;-79
2023/01/19 02:13:19;;;;;;;;;;;;;;;21.23;29.07;97280.22;5050536;28;1910;-79
2023/01/19 02:15:55;;;;;;;;;;;;;;;21.03;29.23;97285.38;5076240;28;968;-79
2023/01/19 02:18:21;;;;;;;;;;;;;;;21.14;29.03;97291.47;5078244;28;914;-78
2023/01/19 02:20:49;;;;;;;;;;;;;;;21.53;28.70;97277.94;5078083;28;951;-78
2023/01/19 02:23:17;;;;;;;;;;;;;;;21.67;28.33;97283.06;5077454;28;953;-79
2023/01/19 02:25:42;;;;;;;;;;;;;;;21.20;29.10;97298.13;5077218;28;968;-79
2023/01/19 02:28:08;;;;;;;;;;;;;;;21.19;29.22;97305.03;5075470;28;961;-79
2023/01/19 02:30:33;;;;;;;;;;;;;;;20.93;29.33;97314.84;5076046;28;1018;-79
2023/01/19 02:32:59;;;;;;;;;;;;;;;21.47;28.91;97302.44;5075395;28;1906;-78
2023/01/19 02:35:25;;;;;;;;;;;;;;;21.27;29.32;97308.38;5075027;28;1098;-79
2023/01/19 02:37:50;;;;;;;;;;;;;;;21.51;28.49;97303.09;5075557;28;980;-78
2023/01/19 02:40:18;;;;;;;;;;;;;;;21.31;28.69;97301.38;5074750;28;1058;-78
2023/01/19 02:42:45;;;;;;;;;;;;;;;20.51;29.38;97216.13;5078787;28;948;-79
2023/01/19 02:45:11;;;;;;;;;;;;;;;20.91;29.42;97306.03;5095700;28;1005;-79
2023/01/19 02:47:46;;;;;;;;;;;;;;;21.12;29.16;97307.31;5038308;28;901;-79
2023/01/19 02:50:30;;;;;;;;;;;;;;;21.49;28.58;97308.41;5038411;28;945;-79
2023/01/19 02:52:56;;;;;;;;;;;;;;;21.41;28.91;97315.59;5054937;28;1902;-79
2023/01/19 02:55:22;;;;;;;;;;;;;;;21.33;28.87;97323.53;5038839;28;1066;-78
2023/01/19 02:57:47;;;;;;;;;;;;;;;21.10;29.23;97324.75;5038260;28;990;-78
2023/01/19 03:00:19;;;;;;;;;;;;;;;20.97;29.57;97343.78;5073953;28;1037;-79
2023/01/19 03:02:56;;;;;;;;;;;;;;;21.08;29.04;97347.03;5075367;28;976;-79
2023/01/19 03:05:28;;;;;;;;;;;;;;;21.41;28.86;97344.69;5074649;28;1013;-78
2023/01/19 03:07:53;;;;;;;;;;;;;;;21.49;28.61;97334.66;5074256;28;1198;-78
2023/01/19 03:10:21;;;;;;;;;;;;;;;21.48;28.61;97335.94;5074516;28;1016;-78
2023/01/19 03:12:49;;;;;;;;;;;;;;;21.14;29.08;97336.72;5074532;28;1909;-79
2023/01/19 03:15:17;;;;;;;;;;;;;;;21.11;29.02;97334.03;5057837;28;951;-79
2023/01/19 03:17:43;;;;;;;;;;;;;;;20.98;29.44;97345.34;5063183;28;913;-78
2023/01/19 03:20:09;;;;;;;;;;;;;;;21.33;28.84;97341.31;5085638;28;1102;-78
2023/01/19 03:22:34;;;;;;;;;;;;;;;21.30;28.88;97333.75;5077508;28;930;-79
2023/01/19 03:24:59;;;;;;;;;;;;;;;21.66;28.37;97329.63;5076673;28;1120;-78
2023/01/19 03:27:26;;;;;;;;;;;;;;;21.43;28.71;97332.91;5076905;28;885;-78
2023/01/19 03:29:52;;;;;;;;;;;;;;;21.26;29.05;97344.38;5075799;28;813;-79
2023/01/19 03:32:18;;;;;;;;;;;;;;;20.99;29.27;97338.47;5074171;28;2027;-79
2023/01/19 03:34:44;;;;;;;;;;;;;;;21.02;29.36;97346.03;5073768;28;963;-78
2023/01/19 03:37:10;;;;;;;;;;;;;;;21.25;29.00;97354.13;5074463;28;994;-78
2023/01/19 03:39:35;;;;;;;;;;;;;;;21.36;29.02;97352.97;5074479;28;996;-79
2023/01/19 03:42:01;;;;;;;;;;;;;;;21.44;28.70;97354.28;5057591;28;916;-79
2023/01/19 03:44:27;;;;;;;;;;;;;;;21.36;29.00;97347.31;5033659;28;1007;-78
2023/01/19 03:46:52;;;;;;;;;;;;;;;21.39;28.69;97352.03;5017198;28;1083;-79
2023/01/19 03:49:18;;;;;;;;;;;;;;;21.30;28.95;97364.09;5017307;28;1375;-79
2023/01/19 03:51:43;;;;;;;;;;;;;;;21.46;29.05;97348.97;5034247;28;1010;-79
2023/01/19 03:54:09;;;;;;;;;;;;;;;21.37;28.86;97344.03;5017406;28;1906;-79
2023/01/19 03:56:34;;;;;;;;;;;;;;;21.63;28.44;97347.53;5034284;28;955;-78
2023/01/19 03:59:00;;;;;;;;;;;;;;;21.21;29.09;97353.44;5001163;28;958;-78
2023/01/19 04:01:25;;;;;;;;;;;;;;;20.96;29.41;97354.31;5034117;28;890;-78
2023/01/19 04:03:51;;;;;;;;;;;;;;;20.95;29.66;97361.22;5033504;28;989;-78
2023/01/19 04:06:16;;;;;;;;;;;;;;;21.39;29.01;97349.22;5017071;28;1131;-78
2023/01/19 04:08:42;;;;;;;;;;;;;;;21.28;29.16;97353.19;5033751;28;1244;-78
2023/01/19 04:11:08;;;;;;;;;;;;;;;21.56;28.75;97356.28;5034361;28;1242;-78
2023/01/19 04:13:34;;;;;;;;;;;;;;;21.12;29.25;97356.19;5017439;28;1910;-79
2023/01/19 04:16:02;;;;;;;;;;;;;;;20.99;29.32;97346.97;5064136;28;1278;-79
2023/01/19 04:18:28;;;;;;;;;;;;;;;21.10;29.27;97347.38;5071260;28;1470;-78
2023/01/19 04:20:54;;;;;;;;;;;;;;;21.28;29.39;97344.69;5072822;28;1217;-78
2023/01/19 04:23:19;;;;;;;;;;;;;;;21.59;28.75;97339.16;5072597;28;1331;-78
2023/01/19 04:25:45;;;;;;;;;;;;;;;21.65;28.59;97342.19;5047181;28;1222;-78
2023/01/19 04:28:10;;;;;;;;;;;;;;;21.29;28.99;97325.69;5052665;28;1295;-78
2023/01/19 04:30:36;;;;;;;;;;;;;;;21.23;29.13;97342.44;5054278;28;1193;-78
2023/01/19 04:33:01;;;;;;;;;;;;;;;21.16;29.15;97334.22;5054084;28;1910;-78
2023/01/19 04:35:27;;;;;;;;;;;;;;;21.23;29.27;97350.94;5054536;28;1016;-78
2023/01/19 04:37:52;;;;;;;;;;;;;;;21.31;29.14;97357.97;5037362;28;928;-78
2023/01/19 04:40:18;;;;;;;;;;;;;;;21.46;29.06;97351.81;5054150;28;929;-79
2023/01/19 04:42:44;;;;;;;;;;;;;;;21.31;28.82;97355.13;5054648;28;940;-78
2023/01/19 04:45:10;;;;;;;;;;;;;;;21.15;29.46;97366.59;5021115;28;901;-79
2023/01/19 04:47:36;;;;;;;;;;;;;;;21.09;29.33;97368.44;5021389;28;995;-79
2023/01/19 04:50:01;;;;;;;;;;;;;;;21.07;29.28;97360.38;5053974;28;1061;-78
2023/01/19 04:52:36;;;;;;;;;;;;;;;21.42;28.95;97366.06;5053567;28;2005;-78
2023/01/19 04:55:02;;;;;;;;;;;;;;;21.54;28.74;97375.75;5070392;28;969;-78
2023/01/19 04:57:28;;;;;;;;;;;;;;;21.19;29.06;97377.78;5071868;28;947;-78
2023/01/19 04:59:55;;;;;;;;;;;;;;;21.30;29.04;97370.53;5060142;28;914;-78
2023/01/19 05:02:21;;;;;;;;;;;;;;;21.04;29.33;97378.28;5080397;28;922;-79
2023/01/19 05:04:47;;;;;;;;;;;;;;;21.25;29.37;97373.91;5078835;28;928;-79
2023/01/19 05:07:12;;;;;;;;;;;;;;;21.61;28.53;97369.84;5079979;28;884;-79
2023/01/19 05:09:37;;;;;;;;;;;;;;;21.75;28.25;97374.97;5080293;28;1038;-79
2023/01/19 05:12:03;;;;;;;;;;;;;;;21.32;28.65;97387.84;5080344;28;1914;-78
2023/01/19 05:14:28;;;;;;;;;;;;;;;21.21;29.02;97390.22;5077522;28;988;-79
2023/01/19 05:16:54;;;;;;;;;;;;;;;21.20;29.19;97385.81;5079721;28;1090;-78
2023/01/19 05:19:20;;;;;;;;;;;;;;;21.68;28.63;97374.44;5078314;28;878;-78
2023/01/19 05:21:45;;;;;;;;;;;;;;;21.68;28.41;97380.91;5080353;28;855;-78
2023/01/19 05:24:11;;;;;;;;;;;;;;;21.63;28.39;97389.97;5079873;28;877;-78
2023/01/19 05:26:36;;;;;;;;;;;;;;;21.54;28.45;97387.06;5079822;28;909;-78
2023/01/19 05:29:02;;;;;;;;;;;;;;;21.30;29.09;97383.91;5079673;28;906;-79
2023/01/19 05:31:27;;;;;;;;;;;;;;;21.15;29.01;97388.44;5079768;28;911;-79
2023/01/19 05:33:52;;;;;;;;;;;;;;;21.33;28.88;97383.75;5079093;28;1976;-78
2023/01/19 05:36:18;;;;;;;;;;;;;;;21.57;28.60;97394.66;5079405;28;850;-78
2023/01/19 05:38:43;;;;;;;;;;;;;;;21.88;28.37;97393.94;5079428;28;915;-78
2023/01/19 05:41:09;;;;;;;;;;;;;;;21.40;28.82;97398.91;5079812;28;948;-78
2023/01/19 05:43:34;;;;;;;;;;;;;;;21.21;29.08;97397.94;5079456;28;1090;-79
2023/01/19 05:46:00;;;;;;;;;;;;;;;21.02;29.32;97403.38;5079747;28;950;-78
2023/01/19 05:48:25;;;;;;;;;;;;;;;21.12;29.60;97411.97;5079376;28;854;-79
2023/01/19 05:50:50;;;;;;;;;;;;;;;21.51;28.71;97419.16;5079913;28;1004;-78
2023/01/19 05:53:16;;;;;;;;;;;;;;;21.58;28.52;97424.53;5078799;28;1981;-78
2023/01/19 05:55:41;;;;;;;;;;;;;;;21.47;28.58;97418.47;5079850;28;869;-79
2023/01/19 05:58:07;;;;;;;;;;;;;;;21.19;29.08;97418.19;5078720;28;872;-79
2023/01/19 06:00:32;;;;;;;;;;;;;;;21.00;29.45;97431.34;5078119;28;915;-78
2023/01/19 06:02:59;;;;;;;;;;;;;;;21.47;28.90;97432.63;5078994;28;826;-78
2023/01/19 06:05:24;;;;;;;;;;;;;;;21.47;28.91;97443.94;5079181;28;933;-79
2023/01/19 06:07:50;;;;;;;;;;;;;;;21.67;28.36;97438.78;5079221;28;1107;-78
2023/01/19 06:10:15;;;;;;;;;;;;;;;21.18;28.95;97439.22;5078680;28;909;-79
2023/01/19 06:12:41;;;;;;;;;;;;;;;21.14;29.16;97458.38;5077809;28;1979;-78
2023/01/19 06:15:06;;;;;;;;;;;;;;;21.26;29.14;97462.44;5078872;28;947;-78
2023/01/19 06:17:32;;;;;;;;;;;;;;;21.02;29.50;97462.78;5078821;28;896;-78
2023/01/19 06:19:57;;;;;;;;;;;;;;;21.33;29.07;97463.00;5079049;28;961;-79
2023/01/19 06:22:23;;;;;;;;;;;;;;;21.81;28.32;97463.78;5078934;28;974;-78
2023/01/19 06:24:49;;;;;;;;;;;;;;;21.51;28.84;97464.44;5078822;28;967;-78
2023/01/19 06:27:14;;;;;;;;;;;;;;;21.23;28.99;97474.63;5078856;28;934;-78
2023/01/19 06:29:40;;;;;;;;;;;;;;;21.26;28.86;97457.56;5076967;28;996;-78
2023/01/19 06:32:05;;;;;;;;;;;;;;;21.08;29.21;97468.66;5079195;28;880;-78
2023/01/19 06:34:30;;;;;;;;;;;;;;;21.52;28.60;97474.50;5078731;28;1973;-79
2023/01/19 06:36:56;;;;;;;;;;;;;;;21.40;29.08;97472.47;5077941;28;1717;-79
2023/01/19 06:39:22;;;;;;;;;;;;;;;21.46;28.73;97479.16;5077049;28;887;-79
2023/01/19 06:41:47;;;;;;;;;;;;;;;21.24;28.94;97477.03;5078976;28;978;-78
2023/01/19 06:44:12;;;;;;;;;;;;;;;21.26;28.91;97477.38;5078090;28;929;-79
2023/01/19 06:46:38;;;;;;;;;;;;;;;21.19;29.06;97479.63;5077109;28;984;-78
2023/01/19 06:49:03;;;;;;;;;;;;;;;21.50;28.71;97482.66;5078381;28;933;-79
2023/01/19 06:51:29;;;;;;;;;;;;;;;21.77;28.14;97473.63;5077289;28;986;-79
2023/01/19 06:53:54;;;;;;;;;;;;;;;21.72;28.25;97472.19;5076729;28;1977;-78
2023/01/19 06:56:20;;;;;;;;;;;;;;;21.27;28.85;97464.78;5078319;28;815;-78
2023/01/19 06:58:46;;;;;;;;;;;;;;;21.09;29.45;97464.59;5077888;28;960;-78
2023/01/19 07:01:11;;;;;;;;;;;;;;;21.14;29.19;97455.56;5077122;28;962;-78
2023/01/19 07:03:37;;;;;;;;;;;;;;;21.29;28.96;97456.63;5060032;28;1764;-78
2023/01/19 07:06:05;;;;;;;;;;;;;;;21.69;28.36;97461.75;5077051;28;848;-78
2023/01/19 07:08:31;;;;;;;;;;;;;;;21.41;28.89;97463.56;5077851;28;1035;-79
2023/01/19 07:11:00;;;;;;;;;;;;;;;21.31;28.79;97464.72;5078354;28;933;-78
2023/01/19 07:13:25;;;;;;;;;;;;;;;21.09;29.10;97470.25;5077512;28;1975;-78
2023/01/19 07:15:51;;;;;;;;;;;;;;;21.27;28.73;97476.09;5076863;28;930;-78
2023/01/19 07:18:16;;;;;;;;;;;;;;;21.61;28.56;97466.09;5077450;28;954;-78
2023/01/19 07:20:43;;;;;;;;;;;;;;;21.68;28.30;97477.16;5077416;28;889;-79
2023/01/19 07:23:09;;;;;;;;;;;;;;;21.29;29.16;97479.25;5075402;28;934;-79
2023/01/19 07:25:35;;;;;;;;;;;;;;;21.27;29.16;97484.59;5076535;28;855;-79
2023/01/19 07:28:00;;;;;;;;;;;;;;;21.27;28.94;97481.78;5077675;28;921;-79
2023/01/19 07:30:26;;;;;;;;;;;;;;;21.12;29.40;97479.88;5077493;28;930;-78
2023/01/19 07:32:53;;;;;;;;;;;;;;;21.44;28.82;97473.94;5077395;28;1910;-78
2023/01/19 07:35:20;;;;;;;;;;;;;;;21.54;28.53;97477.66;5077459;28;920;-78
2023/01/19 07:37:46;;;;;;;;;;;;;;;21.41;28.65;97479.75;5077509;28;861;-79
2023/01/19 07:40:11;;;;;;;;;;;;;;;20.90;29.71;97485.44;5077220;28;946;-78
2023/01/19 07:42:37;;;;;;;;;;;;;;;20.95;29.37;97494.13;5077392;28;910;-78
2023/01/19 07:45:03;;;;;;;;;;;;;;;20.96;29.86;97486.44;5076939;28;916;-78
2023/01/19 07:47:28;;;;;;;;;;;;;;;21.55;28.52;97484.91;5077207;28;937;-78
2023/01/19 07:49:54;;;;;;;;;;;;;;;21.45;28.71;97480.41;5077118;28;876;-78
2023/01/19 07:52:21;;;;;;;;;;;;;;;21.54;28.35;97466.34;5076771;28;1887;-78
2023/01/19 07:54:49;;;;;;;;;;;;;;;21.36;28.72;97466.19;5075973;28;1479;-79
2023/01/19 07:57:15;;;;;;;;;;;;;;;21.16;29.28;97458.69;5076859;28;806;-78
2023/01/19 07:59:40;;;;;;;;;;;;;;;20.90;29.41;97457.94;5076122;28;928;-79
2023/01/19 08:02:07;;;;;;;;;;;;;;;21.44;28.94;97451.31;5077196;28;961;-79
2023/01/19 08:04:32;;;;;;;;;;;;;;;21.67;28.37;97452.94;5075874;28;1096;-78
2023/01/19 08:06:58;;;;;;;;;;;;;;;21.42;28.72;97441.69;5076867;28;925;-78
2023/01/19 08:09:23;;;;;;;;;;;;;;;21.32;28.84;97449.31;5076628;28;1338;-79
2023/01/19 08:11:49;;;;;;;;;;;;;;;21.17;29.14;97457.44;5076675;28;914;-78
2023/01/19 08:14:14;;;;;;;;;;;;;;;21.05;29.32;97453.41;5077466;28;1979;-78
2023/01/19 08:16:40;;;;;;;;;;;;;;;21.44;28.88;97456.19;5076678;28;919;-79
2023/01/19 08:19:05;;;;;;;;;;;;;;;21.63;28.36;97463.59;5076770;28;894;-78
2023/01/19 08:21:32;;;;;;;;;;;;;;;21.56;28.74;97464.66;5075789;28;1017;-78
2023/01/19 08:23:57;;;;;;;;;;;;;;;20.92;29.46;97477.28;5077008;28;839;-79
2023/01/19 08:26:28;;;;;;;;;;;;;;;21.03;29.61;97472.84;5076867;28;970;-78
2023/01/19 08:28:54;;;;;;;;;;;;;;;21.13;29.26;97464.47;5076112;28;987;-78
2023/01/19 08:31:20;;;;;;;;;;;;;;;21.43;28.87;97466.72;5076359;28;918;-78
2023/01/19 08:33:45;;;;;;;;;;;;;;;21.68;28.53;97477.16;5073682;28;1910;-79
2023/01/19 08:36:11;;;;;;;;;;;;;;;21.98;27.87;97489.06;5076914;28;1028;-79
2023/01/19 08:38:39;;;;;;;;;;;;;;;21.77;28.12;97480.09;5076352;28;856;-78
2023/01/19 08:41:05;;;;;;;;;;;;;;;21.45;28.65;97491.72;5075077;28;969;-79
2023/01/19 08:43:30;;;;;;;;;;;;;;;21.05;29.47;97492.22;5076434;28;987;-78
2023/01/19 08:45:55;;;;;;;;;;;;;;;21.06;29.35;97496.63;5076442;28;876;-79
2023/01/19 08:48:21;;;;;;;;;;;;;;;21.42;29.22;97509.63;5076334;28;976;-79
2023/01/19 08:50:47;;;;;;;;;;;;;;;21.49;28.87;97521.47;5076836;28;893;-78
2023/01/19 08:53:12;;;;;;;;;;;;;;;21.57;28.99;97522.06;5076143;28;1910;-78
2023/01/19 08:55:38;;;;;;;;;;;;;;;21.17;29.29;97522.53;5076268;28;1025;-78
2023/01/19 08:58:04;;;;;;;;;;;;;;;21.20;29.41;97526.50;5074707;28;902;-78
2023/01/19 09:00:33;;;;;;;;;;;;;;;21.26;29.15;97530.34;5076224;28;970;-78
2023/01/19 09:03:00;;;;;;;;;;;;;;;21.46;28.99;97527.28;5074941;28;1667;-78
2023/01/19 09:05:25;;;;;;;;;;;;;;;21.44;29.13;97524.09;5075119;28;904;-78
2023/01/19 09:07:51;;;;;;;;;;;;;;;21.92;28.35;97519.25;5076163;28;1123;-79
2023/01/19 09:10:16;;;;;;;;;;;;;;;21.47;28.89;97517.53;5075960;28;1087;-78
2023/01/19 09:12:43;;;;;;;;;;;;;;;21.22;29.29;97507.81;5076160;28;1902;-79
2023/01/19 09:15:09;;;;;;;;;;;;;;;21.03;29.62;97508.84;5075644;28;1483;-78
2023/01/19 09:17:35;;;;;;;;;;;;;;;21.14;29.57;97495.16;5076451;28;985;-79
2023/01/19 09:20:00;;;;;;;;;;;;;;;21.54;28.79;97494.66;5074636;28;900;-79
2023/01/19 09:22:26;;;;;;;;;;;;;;;21.51;28.83;97493.53;5076194;28;985;-78
2023/01/19 09:24:51;;;;;;;;;;;;;;;21.23;29.27;97492.41;5074819;28;848;-78
2023/01/19 09:27:17;;;;;;;;;;;;;;;21.20;29.22;97487.69;5076493;28;906;-79
2023/01/19 09:29:51;;;;;;;;;;;;;;;20.95;29.98;97487.69;5074816;28;954;-79
2023/01/19 09:32:17;;;;;;;;;;;;;;;21.01;29.42;97480.22;5076667;28;1911;-78
2023/01/19 09:34:42;;;;;;;;;;;;;;;21.68;28.65;97477.16;5074927;28;949;-79
2023/01/19 09:37:08;;;;;;;;;;;;;;;21.61;28.75;97471.75;5076222;28;848;-78
2023/01/19 09:39:33;;;;;;;;;;;;;;;21.25;29.08;97472.97;5074711;28;968;-78
2023/01/19 09:42:05;;;;;;;;;;;;;;;21.24;29.21;97474.22;5075614;28;838;-79
2023/01/19 09:44:32;;;;;;;;;;;;;;;21.17;29.10;97471.59;5074392;28;931;-78
2023/01/19 09:46:57;;;;;;;;;;;;;;;20.89;30.03;97466.88;5060828;28;951;-79
2023/01/19 09:49:26;;;;;;;;;;;;;;;21.19;29.19;97471.94;5059986;28;988;-79
2023/01/19 09:51:52;;;;;;;;;;;;;;;21.45;28.78;97457.75;5076844;28;928;-79
2023/01/19 09:54:18;;;;;;;;;;;;;;;21.14;29.15;97452.72;5076784;28;1979;-78
2023/01/19 09:56:44;;;;;;;;;;;;;;;21.14;29.45;97455.56;5036609;28;991;-78
2023/01/19 09:59:20;;;;;;;;;;;;;;;21.21;29.00;97452.47;5020247;28;946;-79
2023/01/19 10:02:04;;;;;;;;;;;;;;;21.34;29.28;97446.81;5020413;28;1038;-78
2023/01/19 10:04:31;;;;;;;;;;;;;;;21.66;28.62;97425.88;5036466;28;1329;-78
2023/01/19 10:06:58;;;;;;;;;;;;;;;21.65;28.56;97438.44;5036818;28;1118;-78
2023/01/19 10:09:35;;;;;;;;;;;;;;;21.16;29.32;97446.59;5036538;28;1215;-78
2023/01/19 10:12:07;;;;;;;;;;;;;;;21.08;29.66;97437.53;5036984;28;998;-78
2023/01/19 10:14:39;;;;;;;;;;;;;;;21.15;29.43;97451.47;5036220;28;1973;-78
2023/01/19 10:17:13;;;;;;;;;;;;;;;21.59;28.84;97434.63;5022784;28;1711;-79
2023/01/19 10:19:40;;;;;;;;;;;;;;;21.92;28.34;97428.59;5036525;28;943;-79
2023/01/19 10:22:21;;;;;;;;;;;;;;;21.55;28.82;97422.63;5036947;28;943;-79
2023/01/19 10:24:46;;;;;;;;;;;;;;;21.23;29.27;97418.06;5036589;28;913;-78
2023/01/19 10:27:14;;;;;;;;;;;;;;;21.12;29.43;97424.09;5050195;28;1058;-78
2023/01/19 10:29:39;;;;;;;;;;;;;;;21.08;29.69;97417.75;5094170;28;1072;-79
2023/01/19 10:32:11;;;;;;;;;;;;;;;21.14;29.55;97410.28;5094404;28;910;-78
2023/01/19 10:34:37;;;;;;;;;;;;;;;21.27;29.51;97401.75;5079014;28;1917;-78
2023/01/19 10:37:15;;;;;;;;;;;;;;;21.43;28.98;97381.00;5079193;28;888;-79
2023/01/19 10:39:40;;;;;;;;;;;;;;;21.15;29.66;97380.75;5093926;28;1196;-78
2023/01/19 10:42:08;;;;;;;;;;;;;;;21.11;29.44;97387.78;5078304;28;1046;-78
2023/01/19 10:44:34;;;;;;;;;;;;;;;21.22;29.23;97388.19;5076973;28;890;-78
2023/01/19 10:47:00;;;;;;;;;;;;;;;21.46;29.03;97391.44;5078298;28;927;-78
2023/01/19 10:49:35;;;;;;;;;;;;;;;21.31;29.46;97386.25;5078087;28;931;-78
2023/01/19 10:52:01;;;;;;;;;;;;;;;21.29;29.16;97388.72;5077086;28;1426;-79
2023/01/19 10:54:26;;;;;;;;;;;;;;;21.34;29.25;97390.19;5076437;28;1906;-78
2023/01/19 10:56:58;;;;;;;;;;;;;;;21.04;29.95;97383.16;5093935;28;900;-78
2023/01/19 10:59:49;;;;;;;;;;;;;;;21.21;29.74;97383.78;5093614;28;1017;-79
2023/01/19 11:02:17;;;;;;;;;;;;;;;21.55;28.85;97388.66;5055836;28;979;-78
2023/01/19 11:04:44;;;;;;;;;;;;;;;21.35;29.18;97369.16;5055497;28;1050;-79
2023/01/19 11:07:13;;;;;;;;;;;;;;;20.97;29.97;97360.75;5055339;28;924;-78
2023/01/19 11:09:38;;;;;;;;;;;;;;;21.10;29.48;97378.50;5055348;28;1060;-78
2023/01/19 11:12:04;;;;;;;;;;;;;;;21.02;29.92;97382.81;5055736;28;1017;-79
2023/01/19 11:14:29;;;;;;;;;;;;;;;21.51;29.09;97385.19;5055306;28;1993;-78
2023/01/19 11:16:55;;;;;;;;;;;;;;;21.39;29.53;97381.13;5055687;28;962;-78
2023/01/19 11:19:23;;;;;;;;;;;;;;;21.46;29.20;97368.78;5035052;28;1429;-78
2023/01/19 11:21:49;;;;;;;;;;;;;;;21.10;29.75;97370.00;5019071;28;1159;-78
2023/01/19 11:24:15;;;;;;;;;;;;;;;21.07;29.61;97376.56;5035226;28;1017;-78
2023/01/19 11:26:43;;;;;;;;;;;;;;;21.19;29.31;97370.09;5035417;28;948;-79
2023/01/19 11:29:19;;;;;;;;;;;;;;;21.21;29.69;97370.44;5035249;28;948;-78
2023/01/19 11:31:44;;;;;;;;;;;;;;;21.29;29.27;97377.41;5034900;28;1083;-78
2023/01/19 11:34:23;;;;;;;;;;;;;;;21.38;29.22;97373.09;5018716;28;1989;-80
2023/01/19 11:36:55;;;;;;;;;;;;;;;21.27;29.45;97367.81;5016162;28;1152;-80
2023/01/19 11:39:26;;;;;;;;;;;;;;;21.16;29.71;97368.19;5042423;28;1544;-78
2023/01/19 11:41:56;;;;;;;;;;;;;;;21.16;29.43;97379.50;5055344;28;1709;-79
2023/01/19 11:44:23;;;;;;;;;;;;;;;21.10;29.45;97375.66;5055403;28;918;-80
2023/01/19 11:46:50;;;;;;;;;;;;;;;21.48;29.17;97372.72;5061295;28;1165;-79
2023/01/19 11:49:35;;;;;;;;;;;;;;;21.57;28.78;97372.81;5058256;28;975;-77
2023/01/19 11:52:05;;;;;;;;;;;;;;;21.36;29.02;97364.31;5083009;28;1455;-78
2023/01/19 11:54:33;;;;;;;;;;;;;;;21.42;29.00;97370.94;5095231;28;1922;-78
2023/01/19 11:56:59;;;;;;;;;;;;;;;21.07;29.89;97368.88;5095393;28;1590;-79
2023/01/19 11:59:24;;;;;;;;;;;;;;;21.13;29.45;97360.59;5097199;28;893;-78
2023/01/19 12:02:13;;;;;;;;;;;;;;;21.46;29.12;97357.47;5096927;28;989;-79
2023/01/19 12:04:39;;;;;;;;;;;;;;;21.46;28.86;97317.84;5054367;28;873;-79
2023/01/19 12:07:07;;;;;;;;;;;;;;;21.30;29.12;97339.41;5046974;28;1506;-76
2023/01/19 12:09:44;;;;;;;;;;;;;;;20.88;29.95;97340.84;5016825;28;1466;-73
2023/01/19 12:12:11;;;;;;;;;;;;;;;21.05;29.68;97350.78;5017337;28;1041;-74
2023/01/19 12:14:37;;;;;;;;;;;;;;;21.07;29.95;97359.59;5017072;28;1998;-73
2023/01/19 12:17:04;;;;;;;;;;;;;;;21.58;29.15;97345.28;5017344;28;964;-73
2023/01/19 12:19:45;;;;;;;;;;;;;;;21.67;28.82;97361.56;5033803;28;1049;-73
2023/01/19 12:22:12;;;;;;;;;;;;;;;21.27;29.39;97368.59;5016911;28;927;-74
2023/01/19 12:25:01;;;;;;;;;;;;;;;21.28;29.38;97366.53;5033307;28;904;-74
2023/01/19 12:27:39;;;;;;;;;;;;;;;21.12;29.56;97367.50;4974389;28;935;-74
2023/01/19 12:30:05;;;;;;;;;;;;;;;21.35;29.75;97365.53;4974349;28;975;-77
2023/01/19 12:32:31;;;;;;;;;;;;;;;21.66;29.16;97372.09;4974659;28;1971;-75
2023/01/19 12:34:57;;;;;;;;;;;;;;;21.81;28.91;97367.47;4974385;28;1072;-74
2023/01/19 12:37:40;;;;;;;;;;;;;;;21.12;29.86;97361.84;4974100;28;1488;-73
2023/01/19 12:40:18;;;;;;;;;;;;;;;20.99;30.13;97363.94;4958110;28;973;-74
2023/01/19 12:42:44;;;;;;;;;;;;;;;21.20;29.55;97371.69;5011516;28;1088;-74
2023/01/19 12:45:13;;;;;;;;;;;;;;;21.34;29.29;97373.22;5013480;28;1071;-74
2023/01/19 12:47:39;;;;;;;;;;;;;;;21.58;29.02;97370.75;4997095;28;1073;-74
2023/01/19 12:50:05;;;;;;;;;;;;;;;21.64;28.85;97385.91;4997097;28;949;-74
2023/01/19 12:52:34;;;;;;;;;;;;;;;21.22;29.64;97388.97;4980808;28;2053;-74
2023/01/19 12:55:03;;;;;;;;;;;;;;;21.12;29.74;97373.16;4997275;28;1113;-74
2023/01/19 12:57:46;;;;;;;;;;;;;;;21.31;29.31;97386.25;5013014;28;990;-74
2023/01/19 13:00:21;;;;;;;;;;;;;;;21.46;29.18;97391.44;5013105;28;934;-74
2023/01/19 13:02:47;;;;;;;;;;;;;;;21.66;29.05;97394.75;5013562;28;1064;-74
2023/01/19 13:05:12;;;;;;;;;;;;;;;21.15;29.49;97402.59;5043247;28;985;-74
2023/01/19 13:07:57;;;;;;;;;;;;;;;21.22;29.79;97405.94;5054801;28;1097;-74
2023/01/19 13:10:41;;;;;;;;;;;;;;;21.01;29.86;97406.69;5055221;28;911;-74
2023/01/19 13:13:16;;;;;;;;;;;;;;;21.05;30.02;97401.69;5055259;28;1910;-74